CheckWX is a tool to help pilots better visualize weather data.  It is not intended as a substitute for an official pre-flight weather briefing.

10:22:04 UTC

EDDH METAR
Hamburg Airport
Hamburg, Germany
Current

32 mins ago

EDDH 160950Z 27014KT 9999 -DZ FEW012 BKN018 17/13 Q1015 TEMPO 30015G25KT
Observed
Jul-16 @ 09:50 UTC
Wind
  • 270° at 14 KTS
Visibility
10,000+ meters
Flight Rules
MVFR
Conditions
Light Drizzle
Cloud Levels
  • Few at 1,200' AGL
  • Broken at 1,800' AGL
Temperature
17°C / 63°F
Dewpoint
13°C / 55°F
Humidity
77%
Altimeter
29.97" Hg
Pressure
1014.92 hPa
Previous

1 hour ago

EDDH 160920Z 29016KT 260V320 9999 -DZ FEW012 BKN018 17/13 Q1015 TEMPO 30015G25KT
Observed
Jul-16 @ 09:20 UTC
Wind
  • 290° at 16 KTS
Visibility
10,000+ meters
Flight Rules
MVFR
Conditions
Light Drizzle
Cloud Levels
  • Few at 1,200' AGL
  • Broken at 1,800' AGL
Temperature
17°C / 63°F
Dewpoint
13°C / 55°F
Humidity
77%
Altimeter
29.97" Hg
Pressure
1014.92 hPa
Previous

2 hours ago

EDDH 160850Z 29013KT 260V320 9999 -DZ FEW008 BKN015 16/13 Q1014 TEMPO BKN012
Observed
Jul-16 @ 08:50 UTC
Wind
  • 290° at 13 KTS
Visibility
10,000+ meters
Flight Rules
MVFR
Conditions
Light Drizzle
Cloud Levels
  • Few at 800' AGL
  • Broken at 1,500' AGL
Temperature
16°C / 61°F
Dewpoint
13°C / 55°F
Humidity
83%
Altimeter
29.94" Hg
Pressure
1013.92 hPa